Time;durP1;ratioP1;P1;durP2;ratioP2;P2;SDS_P1;SDS_P2;PMS_P1;PMS_P2;Temp;Humidity;BMP_temperature;BMP_pressure;BME280_temperature;BME280_humidity;BME280_pressure;Samples;Min_cycle;Max_cycle;Signal;HPM_P1;HPM_P2
2022/02/02 00:00:45;;;;;;;37.20;2.28;;;;;;;;;;4204415;28;20099;-79
2022/02/02 00:02:56;;;;;;;24.05;1.60;;;;;;;;;;4201888;28;20080;-79
2022/02/02 00:05:30;;;;;;;31.27;1.92;;;;;;;;;;4201904;28;20102;-79
2022/02/02 00:07:44;;;;;;;32.65;2.20;;;;;;;;;;4197752;28;20055;-79
2022/02/02 00:13:11;;;;;;;13.13;1.25;;;;;;;;;;4195001;28;20048;-79
2022/02/02 00:18:06;;;;;;;15.68;1.30;;;;;;;;;;4200023;28;20052;-79
2022/02/02 00:20:32;;;;;;;16.83;1.20;;;;;;;;;;4177237;28;20428;-78
2022/02/02 00:22:49;;;;;;;18.27;2.00;;;;;;;;;;4190815;28;20080;-79
2022/02/02 00:25:05;;;;;;;10.15;1.42;;;;;;;;;;4184109;28;20045;-78
2022/02/02 00:27:12;;;;;;;;;;;;;;;;;;4181668;28;20060;-78
2022/02/02 00:29:21;;;;;;;19.45;1.60;;;;;;;;;;4187670;28;19927;-79
2022/02/02 00:31:34;;;;;;;22.55;1.75;;;;;;;;;;4189546;28;20044;-78
2022/02/02 00:33:45;;;;;;;17.27;1.52;;;;;;;;;;4197900;28;20132;-79
2022/02/02 00:36:07;;;;;;;18.98;1.52;;;;;;;;;;4197835;28;20052;-80
2022/02/02 00:38:14;;;;;;;17.67;1.60;;;9.20;99.90;;;;;;4196561;28;21101;-80
2022/02/02 00:40:20;;;;;;;23.63;1.63;;;;;;;;;;4193287;28;20045;-78
2022/02/02 00:42:29;;;;;;;28.45;1.58;;;9.20;99.90;;;;;;4191754;28;20052;-78
2022/02/02 00:44:41;;;;;;;21.90;2.13;;;;;;;;;;4197513;28;20049;-79
2022/02/02 00:46:47;;;;;;;16.15;1.13;;;9.30;99.90;;;;;;4197872;28;20135;-77
2022/02/02 00:48:59;;;;;;;8.52;0.90;;;;;;;;;;4198051;28;20045;-78
2022/02/02 00:51:07;;;;;;;10.13;0.90;;;;;;;;;;4199030;28;20500;-79
2022/02/02 00:53:14;;;;;;;12.10;1.50;;;9.30;99.90;;;;;;4198106;28;20059;-79
2022/02/02 00:55:21;;;;;;;9.15;0.80;;;9.40;99.90;;;;;;4197621;28;20095;-81
2022/02/02 00:57:32;;;;;;;9.20;1.25;;;9.30;99.90;;;;;;4195165;28;20080;-80
2022/02/02 00:59:38;;;;;;;12.00;1.27;;;;;;;;;;4192497;28;20049;-80
2022/02/02 01:01:46;;;;;;;12.85;1.17;;;;;;;;;;4186101;28;20052;-80
2022/02/02 01:03:51;;;;;;;9.73;1.00;;;;;;;;;;4196969;28;20055;-79
2022/02/02 01:05:57;;;;;;;15.48;1.42;;;;;;;;;;4197548;28;20044;-79
2022/02/02 01:10:30;;;;;;;11.73;0.90;;;;;;;;;;4194665;28;20036;-78
2022/02/02 01:12:49;;;;;;;8.25;1.10;;;;;;;;;;4195429;28;20060;-80
2022/02/02 01:16:04;;;;;;;16.50;1.25;;;9.20;99.90;;;;;;4197242;28;20052;-79
2022/02/02 01:20:04;;;;;;;16.02;1.55;;;9.20;99.90;;;;;;4190875;28;20079;-79
2022/02/02 01:29:13;;;;;;;14.18;1.25;;;9.10;99.90;;;;;;4177962;28;20056;-79
2022/02/02 01:31:18;;;;;;;27.20;2.13;;;9.20;99.90;;;;;;4197135;28;20059;-80
2022/02/02 01:33:25;;;;;;;17.00;1.58;;;9.20;99.90;;;;;;4197417;28;20425;-80
2022/02/02 01:35:34;;;;;;;13.40;1.52;;;9.30;99.90;;;;;;4197047;28;20045;-80
2022/02/02 01:37:41;;;;;;;11.55;1.05;;;;;;;;;;4188346;28;20512;-79
2022/02/02 01:39:55;;;;;;;18.85;1.15;;;9.10;99.90;;;;;;4195048;28;20060;-80
2022/02/02 01:42:04;;;;;;;14.15;1.02;;;;;;;;;;4194468;28;20052;-78
2022/02/02 01:44:35;;;;;;;17.88;1.52;;;;;;;;;;4190495;28;20052;-78
2022/02/02 01:46:41;;;;;;;9.65;1.67;;;9.10;99.90;;;;;;4197713;28;20059;-77
2022/02/02 01:49:00;;;;;;;14.25;1.15;;;9.10;99.90;;;;;;4192251;28;20123;-79
2022/02/02 01:55:45;;;;;;;11.65;1.30;;;;;;;;;;4181515;28;20048;-80
2022/02/02 02:00:01;;;;;;;7.88;1.00;;;9.30;99.90;;;;;;4197985;28;20052;-79
2022/02/02 02:02:09;;;;;;;11.10;1.20;;;9.30;99.90;;;;;;4196676;28;20059;-79
2022/02/02 02:04:15;;;;;;;15.57;1.55;;;;;;;;;;4196714;28;20044;-80
2022/02/02 02:06:21;;;;;;;27.05;1.35;;;;;;;;;;4193507;28;20151;-80
2022/02/02 02:08:28;;;;;;;19.65;1.75;;;9.30;99.90;;;;;;4180217;28;20128;-80
2022/02/02 02:10:38;;;;;;;19.15;1.98;;;9.30;99.90;;;;;;4179882;28;20075;-79
2022/02/02 02:13:02;;;;;;;19.80;1.80;;;;;;;;;;4179225;28;20120;-79
2022/02/02 02:15:11;;;;;;;19.55;2.35;;;9.20;99.90;;;;;;4192134;28;20131;-78
2022/02/02 02:17:18;;;;;;;13.38;1.75;;;9.30;99.90;;;;;;4189782;28;20053;-77
2022/02/02 02:19:25;;;;;;;14.88;1.92;;;9.10;99.90;;;;;;4179705;28;20045;-80
2022/02/02 02:21:31;;;;;;;23.48;1.42;;;9.10;99.90;;;;;;4180096;28;20060;-80
2022/02/02 02:23:40;;;;;;;19.85;1.30;;;9.20;99.90;;;;;;4179986;28;20075;-80
2022/02/02 02:25:45;;;;;;;;;;;;;;;;;;4190502;28;20056;-79
2022/02/02 02:27:52;;;;;;;12.57;1.10;;;;;;;;;;4196115;28;19924;-78
2022/02/02 02:32:28;;;;;;;18.88;1.33;;;;;;;;;;4188932;28;20044;-80
2022/02/02 02:56:20;;;;;;;23.63;1.75;;;9.10;99.90;;;;;;4162977;28;20536;-79
2022/02/02 03:01:10;;;;;;;32.85;2.33;;;9.20;99.90;;;;;;4164724;28;20405;-79
2022/02/02 03:30:16;;;;;;;24.40;2.47;;;;;;;;;;4183897;28;20049;-79
2022/02/02 03:35:11;;;;;;;23.65;2.00;;;9.20;99.90;;;;;;4181422;28;19970;-82
2022/02/02 03:49:49;;;;;;;24.23;2.15;;;9.00;99.90;;;;;;4179953;28;20053;-80
2022/02/02 03:52:26;;;;;;;13.98;1.35;;;;;;;;;;4182593;28;20139;-80
2022/02/02 03:57:07;;;;;;;17.20;1.90;;;9.20;99.90;;;;;;4195200;28;19920;-80
2022/02/02 04:01:46;;;;;;;18.70;2.10;;;;;;;;;;4191693;28;20049;-78
2022/02/02 04:04:03;;;;;;;32.30;2.78;;;9.10;99.90;;;;;;4183073;28;20068;-79
2022/02/02 04:06:19;;;;;;;;;;;;;;;;;;4189101;28;20057;-79
2022/02/02 04:08:28;;;;;;;21.52;2.00;;;;;;;;;;4198544;28;19920;-80
2022/02/02 04:10:34;;;;;;;23.52;2.67;;;9.00;99.90;;;;;;4198250;28;20045;-78
2022/02/02 04:39:12;;;;;;;41.90;4.20;;;;;;;;;;4182595;28;20462;-78
2022/02/02 04:51:35;;;;;;;32.42;4.13;;;8.60;99.90;;;;;;4198923;28;20106;-79
2022/02/02 05:18:13;;;;;;;48.90;4.57;;;9.10;99.90;;;;;;4190300;28;20080;-80
2022/02/02 05:49:20;;;;;;;30.60;3.83;;;;;;;;;;4198302;28;20055;-78
2022/02/02 05:51:42;;;;;;;31.83;4.47;;;;;;;;;;4197202;28;20730;-78
2022/02/02 05:53:51;;;;;;;29.92;3.65;;;9.10;99.90;;;;;;4196939;28;20045;-78
2022/02/02 05:56:02;;;;;;;42.13;5.13;;;;;;;;;;4196784;28;20072;-81
2022/02/02 05:58:09;;;;;;;48.45;4.93;;;9.20;99.90;;;;;;4196613;28;20052;-80
2022/02/02 06:00:19;;;;;;;35.92;4.50;;;9.20;99.90;;;;;;4185165;28;20463;-78
2022/02/02 06:02:38;;;;;;;27.13;4.00;;;9.10;99.90;;;;;;4180116;28;20515;-79
2022/02/02 06:04:48;;;;;;;35.85;3.60;;;9.10;99.90;;;;;;4179273;28;20508;-79
2022/02/02 06:06:58;;;;;;;35.35;4.60;;;9.10;99.90;;;;;;4179576;28;20057;-80
2022/02/02 06:09:05;;;;;;;36.72;5.40;;;9.20;99.90;;;;;;4182499;28;20091;-81
2022/02/02 06:11:21;;;;;;;36.13;4.28;;;9.10;99.90;;;;;;4187555;28;20596;-81
2022/02/02 06:13:49;;;;;;;34.97;3.95;;;9.10;99.90;;;;;;4190734;28;20458;-77
2022/02/02 06:15:58;;;;;;;32.85;4.93;;;9.20;99.90;;;;;;4184256;28;20622;-78
2022/02/02 06:18:06;;;;;;;37.67;4.78;;;9.30;99.90;;;;;;4194017;28;20771;-78
2022/02/02 06:20:15;;;;;;;43.63;5.20;;;9.30;99.90;;;;;;4195113;28;20413;-78
2022/02/02 06:22:33;;;;;;;42.25;4.38;;;9.20;99.90;;;;;;4190117;28;20048;-80
2022/02/02 06:24:49;;;;;;;38.45;4.22;;;9.20;99.90;;;;;;4193067;28;20157;-77
2022/02/02 06:26:56;;;;;;;;;;;9.10;99.90;;;;;;4181584;28;20052;-79
2022/02/02 06:29:08;;;;;;;34.15;3.95;;;9.10;99.90;;;;;;4184756;28;20102;-78
2022/02/02 06:31:15;;;;;;;32.53;3.97;;;9.30;99.90;;;;;;4190537;28;20515;-78
2022/02/02 06:33:47;;;;;;;31.10;3.45;;;9.10;99.90;;;;;;4188817;28;20071;-78
2022/02/02 06:35:55;;;;;;;33.95;4.78;;;9.20;99.90;;;;;;4182844;28;20037;-78
2022/02/02 06:38:02;;;;;;;28.23;4.45;;;9.10;99.90;;;;;;4186947;28;20044;-77
2022/02/02 06:40:12;;;;;;;34.25;4.45;;;9.20;99.90;;;;;;4182774;28;20590;-79
2022/02/02 06:42:19;;;;;;;35.00;5.57;;;9.20;99.90;;;;;;4188611;28;20143;-79
2022/02/02 06:44:26;;;;;;;32.30;4.75;;;9.20;99.90;;;;;;4187618;28;20409;-77
2022/02/02 06:46:37;;;;;;;48.45;4.95;;;9.10;99.90;;;;;;4193444;28;20071;-79
2022/02/02 06:48:44;;;;;;;29.00;3.70;;;9.20;99.90;;;;;;4196302;28;20688;-81
2022/02/02 06:50:59;;;;;;;40.03;3.95;;;;;;;;;;4193907;28;20118;-78
2022/02/02 06:53:25;;;;;;;36.77;4.63;;;9.20;99.90;;;;;;4195588;28;20650;-79
2022/02/02 06:55:45;;;;;;;38.85;4.50;;;9.20;99.90;;;;;;4196097;28;20321;-78
2022/02/02 06:58:17;;;;;;;35.13;5.22;;;;;;;;;;4193783;28;20575;-77
2022/02/02 07:00:53;;;;;;;47.65;5.63;;;;;;;;;;4188660;28;20040;-78
2022/02/02 07:03:07;;;;;;;45.85;5.55;;;;;;;;;;4197149;28;20527;-79
2022/02/02 07:05:32;;;;;;;47.88;5.25;;;9.10;99.90;;;;;;4180412;28;20087;-80
2022/02/02 07:10:36;;;;;;;45.38;4.60;;;9.20;99.90;;;;;;4180271;28;20048;-80
2022/02/02 07:22:24;;;;;;;44.97;5.45;;;;;;;;;;4184859;28;20566;-81
2022/02/02 07:33:43;;;;;;;37.58;5.30;;;;;;;;;;4184045;28;20051;-78
2022/02/02 07:36:02;;;;;;;41.03;4.53;;;;;;;;;;4185757;28;20052;-80
2022/02/02 07:38:15;;;;;;;40.30;4.63;;;9.20;99.90;;;;;;4182366;28;20076;-79
2022/02/02 07:40:22;;;;;;;40.03;5.78;;;9.20;99.90;;;;;;4191729;28;20048;-81
2022/02/02 07:42:30;;;;;;;37.85;4.75;;;9.40;99.90;;;;;;4195110;28;20056;-80
2022/02/02 07:44:44;;;;;;;49.20;5.20;;;9.20;99.90;;;;;;4182383;28;20139;-80
2022/02/02 07:46:52;;;;;;;45.97;6.03;;;;;;;;;;4182606;28;20060;-82
2022/02/02 07:49:00;;;;;;;27.88;4.10;;;9.10;99.90;;;;;;4181867;28;20048;-81
2022/02/02 07:51:10;;;;;;;32.70;5.70;;;9.30;99.90;;;;;;4192952;28;20048;-80
2022/02/02 07:53:22;;;;;;;38.13;6.00;;;9.30;99.90;;;;;;4198804;28;20057;-79
2022/02/02 07:55:57;;;;;;;34.20;4.05;;;9.20;99.90;;;;;;4199160;28;20485;-78
2022/02/02 07:58:05;;;;;;;44.50;4.90;;;9.20;99.90;;;;;;4197230;28;20119;-79
2022/02/02 08:00:23;;;;;;;50.90;5.13;;;9.20;99.90;;;;;;4185165;28;20054;-79
2022/02/02 08:04:40;;;;;;;42.65;4.32;;;9.20;99.90;;;;;;4182858;28;20566;-80
2022/02/02 08:06:54;;;;;;;39.25;4.43;;;;;;;;;;4182680;28;20140;-78
2022/02/02 08:09:01;;;;;;;42.38;6.50;;;9.10;99.90;;;;;;4193424;28;20775;-81
2022/02/02 08:11:11;;;;;;;38.63;4.53;;;9.20;99.90;;;;;;4184816;28;20109;-83
2022/02/02 08:13:23;;;;;;;36.17;5.50;;;9.20;99.90;;;;;;4195246;28;20068;-80
2022/02/02 08:15:32;;;;;;;38.13;4.53;;;9.20;99.90;;;;;;4190800;28;20048;-79
2022/02/02 08:17:43;;;;;;;40.13;4.43;;;9.20;99.90;;;;;;4183872;28;20519;-79
2022/02/02 08:19:52;;;;;;;37.05;3.70;;;9.30;99.90;;;;;;4185397;28;20118;-79
2022/02/02 08:22:00;;;;;;;39.30;4.70;;;9.30;99.90;;;;;;4188935;28;20055;-79
2022/02/02 08:24:09;;;;;;;41.85;4.00;;;9.30;99.90;;;;;;4181578;28;20056;-81
2022/02/02 08:26:15;;;;;;;41.25;4.38;;;9.30;99.90;;;;;;4189407;28;20065;-79
2022/02/02 08:28:23;;;;;;;36.00;4.03;;;9.40;99.90;;;;;;4181619;28;20057;-79
2022/02/02 08:30:31;;;;;;;26.08;4.05;;;9.30;99.90;;;;;;4189467;28;20579;-79
2022/02/02 08:32:50;;;;;;;27.60;4.80;;;9.40;99.90;;;;;;4187685;28;20082;-80
2022/02/02 08:34:59;;;;;;;27.77;3.92;;;9.30;99.90;;;;;;4191559;28;20045;-79
2022/02/02 08:37:07;;;;;;;29.20;3.65;;;9.40;99.90;;;;;;4187281;28;20528;-79
2022/02/02 08:39:29;;;;;;;40.97;4.70;;;9.40;99.90;;;;;;4187910;28;20075;-79
2022/02/02 08:41:46;;;;;;;36.47;4.07;;;9.40;99.90;;;;;;4190594;28;20053;-79
2022/02/02 08:44:00;;;;;;;42.90;4.00;;;9.40;99.90;;;;;;4189320;28;20123;-79
2022/02/02 08:46:28;;;;;;;33.92;4.38;;;9.50;99.90;;;;;;4183613;28;20057;-79
2022/02/02 08:48:37;;;;;;;36.55;3.80;;;9.50;99.90;;;;;;4183828;28;20057;-80
2022/02/02 08:51:02;;;;;;;40.97;3.92;;;9.50;99.90;;;;;;4187305;28;20048;-79
2022/02/02 08:53:16;;;;;;;27.52;4.05;;;;;;;;;;4185035;28;20049;-80
2022/02/02 08:55:46;;;;;;;33.05;3.53;;;9.50;99.90;;;;;;4191857;28;20052;-80
2022/02/02 08:58:20;;;;;;;28.08;3.30;;;9.50;99.90;;;;;;4187846;28;20076;-79
2022/02/02 09:00:24;;;;;;;31.67;4.70;;;9.40;99.90;;;;;;4186955;28;20106;-80
2022/02/02 09:02:33;;;;;;;30.15;3.80;;;9.60;99.90;;;;;;4185068;28;20060;-80
2022/02/02 09:07:04;;;;;;;40.90;4.45;;;;;;;;;;4190255;28;20049;-80
2022/02/02 09:09:21;;;;;;;40.38;3.80;;;9.60;99.90;;;;;;4187628;28;20049;-79
2022/02/02 09:35:02;;;;;;;29.15;3.83;;;10.10;99.90;;;;;;4198586;28;20047;-80
2022/02/02 09:37:09;;;;;;;33.55;4.30;;;;;;;;;;4193188;28;20680;-78
2022/02/02 09:39:21;;;;;;;29.77;4.32;;;;;;;;;;4191114;28;20076;-79
2022/02/02 09:41:42;;;;;;;31.10;4.05;;;10.20;99.90;;;;;;4197110;28;20131;-78
2022/02/02 09:43:54;;;;;;;38.63;3.88;;;;;;;;;;4189075;28;20052;-79
2022/02/02 09:46:13;;;;;;;34.58;3.20;;;10.30;99.90;;;;;;4182001;28;20139;-79
2022/02/02 09:48:29;;;;;;;31.80;3.95;;;10.20;99.90;;;;;;4191353;28;20524;-77
2022/02/02 09:50:41;;;;;;;;;;;10.20;99.90;;;;;;4196175;28;20086;-81
2022/02/02 09:52:55;;;;;;;22.45;3.00;;;10.20;99.90;;;;;;4180808;28;19968;-78
2022/02/02 09:55:12;;;;;;;35.58;4.10;;;10.20;99.90;;;;;;4189556;28;20512;-79
2022/02/02 10:00:21;;;;;;;31.73;3.35;;;;;;;;;;4181743;28;20130;-81
2022/02/02 10:14:54;;;;;;;22.60;3.72;;;;;;;;;;4181543;28;20057;-78
2022/02/02 10:17:04;;;;;;;35.40;4.53;;;;;;;;;;4194069;28;20102;-79
2022/02/02 10:19:15;;;;;;;38.03;4.53;;;10.70;99.90;;;;;;4196647;28;20067;-80
2022/02/02 10:21:34;;;;;;;27.10;3.83;;;10.40;99.90;;;;;;4193481;28;20056;-79
2022/02/02 10:23:42;;;;;;;28.80;3.13;;;10.70;99.90;;;;;;4192544;28;20144;-80
2022/02/02 10:25:50;;;;;;;23.98;3.20;;;10.60;99.90;;;;;;4188525;28;20453;-79
2022/02/02 10:28:17;;;;;;;33.20;4.78;;;10.60;99.90;;;;;;4187991;28;20080;-79
2022/02/02 10:30:22;;;;;;;;;;;10.60;99.90;;;;;;4193617;28;20045;-79
2022/02/02 10:32:43;;;;;;;31.17;3.28;;;10.70;99.90;;;;;;4187631;28;20015;-81
2022/02/02 10:34:50;;;;;;;21.15;3.17;;;10.70;99.90;;;;;;4180603;28;20048;-78
2022/02/02 10:37:28;;;;;;;37.65;5.07;;;10.70;99.90;;;;;;4185467;28;20045;-80
2022/02/02 10:39:51;;;;;;;25.75;3.67;;;10.80;99.90;;;;;;4180198;28;20123;-79
2022/02/02 10:42:01;;;;;;;21.95;3.20;;;;;;;;;;4179752;28;20509;-79
2022/02/02 10:44:27;;;;;;;29.73;3.55;;;11.20;99.90;;;;;;4192054;28;20479;-79
2022/02/02 10:46:44;;;;;;;35.92;3.65;;;11.30;99.90;;;;;;4195728;28;20496;-77
2022/02/02 10:49:02;;;;;;;29.30;3.08;;;;;;;;;;4183669;28;20512;-79
2022/02/02 10:51:24;;;;;;;33.30;3.55;;;11.60;99.90;;;;;;4191508;28;20052;-80
2022/02/02 10:53:41;;;;;;;32.50;3.70;;;;;;;;;;4189378;28;20052;-78
2022/02/02 11:01:07;;;;;;;33.72;4.10;;;11.60;99.90;;;;;;4136397;28;20046;-79
2022/02/02 11:08:22;;;;;;;33.50;5.55;;;11.50;99.90;;;;;;4199112;28;20500;-79
2022/02/02 11:10:30;;;;;;;37.13;6.35;;;11.40;99.90;;;;;;4194543;28;20048;-78
2022/02/02 11:12:38;;;;;;;27.33;4.50;;;11.50;99.90;;;;;;4181789;28;20049;-78
2022/02/02 11:15:04;;;;;;;37.20;4.97;;;11.50;99.90;;;;;;4179725;28;20048;-78
2022/02/02 11:17:26;;;;;;;42.05;5.40;;;11.40;99.90;;;;;;4180645;28;20463;-81
2022/02/02 11:19:38;;;;;;;27.42;4.47;;;11.50;99.90;;;;;;4194293;28;20432;-78
2022/02/02 11:21:51;;;;;;;34.58;4.43;;;11.50;99.90;;;;;;4196411;28;20060;-78
2022/02/02 11:24:19;;;;;;;40.47;4.85;;;11.70;99.90;;;;;;4195151;28;20555;-79
2022/02/02 11:26:42;;;;;;;24.90;4.28;;;11.70;99.90;;;;;;4194674;28;20076;-79
2022/02/02 11:28:49;;;;;;;37.47;4.57;;;;;;;;;;4186572;28;20076;-78
2022/02/02 11:31:20;;;;;;;29.35;3.80;;;11.80;99.90;;;;;;4195696;28;20052;-79
2022/02/02 11:33:27;;;;;;;30.40;3.90;;;;;;;;;;4196158;28;20542;-78
2022/02/02 11:38:17;;;;;;;27.90;3.92;;;11.30;99.90;;;;;;4180741;28;20496;-79
2022/02/02 11:40:27;;;;;;;30.30;4.00;;;11.50;99.90;;;;;;4180448;28;20079;-79
2022/02/02 11:42:56;;;;;;;26.35;4.50;;;11.40;99.90;;;;;;4195144;28;20166;-81
2022/02/02 11:45:25;;;;;;;23.48;3.60;;;;;;;;;;4193886;28;20083;-78
2022/02/02 11:47:49;;;;;;;23.05;3.95;;;11.50;99.90;;;;;;4179757;28;20608;-78
2022/02/02 11:50:05;;;;;;;25.50;4.85;;;11.50;99.90;;;;;;4180404;28;20049;-82
2022/02/02 11:52:29;;;;;;;30.05;4.28;;;;;;;;;;4180277;28;20049;-81
2022/02/02 11:54:41;;;;;;;32.20;5.47;;;11.50;99.90;;;;;;4189136;28;20083;-79
2022/02/02 11:57:11;;;;;;;29.95;3.50;;;;;;;;;;4192132;28;20154;-78
2022/02/02 12:00:17;;;;;;;32.75;4.72;;;11.40;99.90;;;;;;4192742;28;20532;-78
2022/02/02 12:02:43;;;;;;;27.27;3.53;;;11.50;99.90;;;;;;4183135;28;20052;-80
2022/02/02 12:07:22;;;;;;;27.15;3.90;;;11.50;99.90;;;;;;4184080;28;20061;-78
2022/02/02 12:09:56;;;;;;;28.23;4.85;;;11.60;99.90;;;;;;4185101;28;20065;-81
2022/02/02 12:45:13;;;;;;;26.13;2.78;;;;;;;;;;4183060;28;20439;-78
2022/02/02 12:56:56;;;;;;;22.00;3.60;;;11.50;99.90;;;;;;4199868;28;20132;-78
2022/02/02 12:59:34;;;;;;;21.73;4.07;;;;;;;;;;4189344;28;20045;-77
2022/02/02 13:01:40;;;;;;;25.45;3.58;;;;;;;;;;4183175;28;20703;-78
2022/02/02 13:03:47;;;;;;;23.60;2.85;;;11.50;99.90;;;;;;4172128;28;20507;-79
2022/02/02 13:05:55;;;;;;;28.55;3.47;;;11.40;99.90;;;;;;4194293;28;20048;-78
2022/02/02 13:08:02;;;;;;;22.55;3.70;;;;;;;;;;4191673;28;20138;-77
2022/02/02 13:10:10;;;;;;;29.00;3.05;;;;;;;;;;4197048;28;20049;-78
2022/02/02 13:12:24;;;;;;;19.80;3.08;;;;;;;;;;4198073;28;20048;-78
2022/02/02 13:14:53;;;;;;;32.78;3.40;;;11.50;99.90;;;;;;4195918;28;20048;-78
2022/02/02 13:17:06;;;;;;;25.55;3.65;;;11.50;99.90;;;;;;4189737;28;20124;-78
2022/02/02 13:19:17;;;;;;;23.60;3.28;;;11.50;99.90;;;;;;4185497;28;20087;-78
2022/02/02 13:21:35;;;;;;;28.27;3.03;;;11.40;99.90;;;;;;4191267;28;20049;-78
2022/02/02 13:25:53;;;;;;;26.33;3.80;;;;;;;;;;4199721;28;20070;-78
2022/02/02 13:28:02;;;;;;;16.38;2.50;;;11.50;99.90;;;;;;4200678;28;20057;-78
2022/02/02 13:30:44;;;;;;;24.42;3.35;;;11.50;99.90;;;;;;4200233;28;20053;-78
2022/02/02 13:32:53;;;;;;;27.40;3.42;;;11.50;99.90;;;;;;4184561;28;20059;-78
2022/02/02 13:35:23;;;;;;;22.80;3.15;;;11.40;99.90;;;;;;4181508;28;20049;-77
2022/02/02 13:42:39;;;;;;;24.77;4.15;;;11.30;99.90;;;;;;4197339;28;20045;-78
2022/02/02 13:45:22;;;;;;;19.30;3.00;;;11.10;99.90;;;;;;4198942;28;20523;-78
2022/02/02 13:53:00;;;;;;;20.65;3.25;;;11.10;99.90;;;;;;4182391;28;20053;-76
2022/02/02 13:58:30;;;;;;;25.77;3.03;;;11.00;99.90;;;;;;4192582;28;20074;-77
2022/02/02 14:00:55;;;;;;;17.15;2.38;;;10.90;99.90;;;;;;4181173;28;20052;-78
2022/02/02 14:05:59;;;;;;;21.15;3.08;;;10.90;99.90;;;;;;4182043;28;20111;-78
2022/02/02 14:09:02;;;;;;;20.20;2.72;;;11.10;99.90;;;;;;4186309;28;20059;-78
2022/02/02 14:32:44;;;;;;;24.75;3.20;;;11.00;99.90;;;;;;4183527;28;20060;-77
2022/02/02 14:34:53;;;;;;;17.35;2.83;;;11.80;99.90;;;;;;4195462;28;20083;-78
2022/02/02 14:37:01;;;;;;;22.25;4.07;;;11.00;99.90;;;;;;4179042;28;20725;-80
2022/02/02 14:41:53;;;;;;;21.33;3.90;;;10.90;99.90;;;;;;4180530;28;20094;-77
2022/02/02 14:46:13;;;;;;;19.15;3.58;;;10.80;99.90;;;;;;4184372;28;20770;-78
2022/02/02 14:48:36;;;;;;;15.40;2.90;;;10.80;99.90;;;;;;4194154;28;20056;-77
2022/02/02 14:51:08;;;;;;;24.50;3.25;;;10.80;99.90;;;;;;4196743;28;20508;-77
2022/02/02 14:53:43;;;;;;;21.25;3.15;;;;;;;;;;4184944;28;20045;-78
2022/02/02 14:56:25;;;;;;;21.65;2.85;;;;;;;;;;4188526;28;20045;-79
2022/02/02 15:07:04;;;;;;;21.90;3.00;;;;;;;;;;4185972;28;20083;-80
2022/02/02 15:28:42;;;;;;;20.52;4.03;;;10.40;99.90;;;;;;4195526;28;20084;-77
2022/02/02 15:30:58;;;;;;;31.33;5.18;;;10.40;99.90;;;;;;4179242;28;20051;-77
2022/02/02 15:33:11;;;;;;;32.22;3.85;;;10.20;99.90;;;;;;4197235;28;20044;-77
2022/02/02 15:35:25;;;;;;;21.38;3.10;;;10.30;99.90;;;;;;4195778;28;20671;-77
2022/02/02 15:37:43;;;;;;;29.25;3.80;;;10.20;99.90;;;;;;4196088;28;20166;-77
2022/02/02 15:40:05;;;;;;;19.60;2.95;;;10.50;99.90;;;;;;4190069;28;20048;-77
2022/02/02 15:58:37;;;;;;;24.60;3.72;;;10.00;99.90;;;;;;4200296;28;20064;-77
2022/02/02 16:03:05;;;;;;;26.30;3.28;;;9.90;99.90;;;;;;4199684;28;20049;-78
2022/02/02 16:05:15;;;;;;;25.42;3.40;;;10.10;99.90;;;;;;4196666;28;20551;-78
2022/02/02 16:07:29;;;;;;;33.35;4.57;;;10.00;99.90;;;;;;4182137;28;20057;-77
2022/02/02 16:09:45;;;;;;;23.02;3.42;;;9.90;99.90;;;;;;4187628;28;20086;-82
2022/02/02 16:12:06;;;;;;;23.88;3.65;;;10.00;99.90;;;;;;4194667;28;20585;-81
2022/02/02 16:14:22;;;;;;;20.85;3.33;;;;;;;;;;4185181;28;20139;-78
2022/02/02 16:18:42;;;;;;;26.70;4.13;;;9.90;99.90;;;;;;4199484;28;20136;-77
2022/02/02 16:34:19;;;;;;;23.48;4.57;;;9.80;99.90;;;;;;4188251;28;20101;-78
2022/02/02 16:36:07;;;;;;;26.05;3.70;;;9.70;99.90;;;;;;4197548;28;20144;-78
2022/02/02 16:38:16;;;;;;;31.05;4.00;;;9.60;99.90;;;;;;4181686;28;20087;-77
2022/02/02 16:40:30;;;;;;;35.00;2.92;;;9.60;99.90;;;;;;4182011;28;20060;-77
2022/02/02 16:45:02;;;;;;;19.83;2.97;;;9.70;99.90;;;;;;4183694;28;20496;-77
2022/02/02 16:47:09;;;;;;;21.73;3.00;;;9.60;99.90;;;;;;4181961;28;20049;-77
2022/02/02 16:49:35;;;;;;;30.33;3.33;;;9.50;99.90;;;;;;4194718;28;20045;-77
2022/02/02 16:51:45;;;;;;;27.92;3.40;;;9.30;99.90;;;;;;4181868;28;20610;-77
2022/02/02 16:53:54;;;;;;;22.67;3.58;;;9.50;99.90;;;;;;4181901;28;20053;-77
2022/02/02 16:56:11;;;;;;;23.20;2.67;;;9.50;99.90;;;;;;4181515;28;20041;-79
2022/02/02 17:29:08;;;;;;;28.17;3.92;;;9.50;99.90;;;;;;4198760;28;20401;-76
2022/02/02 17:30:41;;;;;;;19.50;3.42;;;9.50;99.90;;;;;;4199138;28;20536;-80
2022/02/02 17:32:54;;;;;;;25.38;3.38;;;9.60;99.90;;;;;;4198172;28;20048;-80
2022/02/02 17:39:48;;;;;;;27.65;3.97;;;9.40;99.90;;;;;;4181447;28;20095;-78
2022/02/02 17:42:28;;;;;;;24.92;3.10;;;;;;;;;;4193279;28;20053;-81
2022/02/02 17:58:01;;;;;;;36.63;5.00;;;9.10;99.90;;;;;;4198505;28;20064;-78
2022/02/02 18:12:29;;;;;;;21.10;3.75;;;;;;;;;;4190797;28;20049;-78
2022/02/02 18:19:14;;;;;;;12.98;3.53;;;;;;;;;;4196047;28;20048;-80
2022/02/02 18:21:22;;;;;;;25.77;3.38;;;9.10;99.90;;;;;;4196392;28;20419;-80
2022/02/02 18:23:40;;;;;;;22.80;4.15;;;9.10;99.90;;;;;;4190229;28;20052;-77
2022/02/02 18:25:56;;;;;;;25.38;3.95;;;9.10;99.90;;;;;;4196430;28;20656;-81
2022/02/02 18:28:23;;;;;;;21.67;3.67;;;9.30;99.90;;;;;;4188188;28;20433;-80
2022/02/02 18:33:01;;;;;;;29.23;3.83;;;;;;;;;;4198576;28;20052;-78
2022/02/02 18:35:15;;;;;;;24.00;3.58;;;9.30;99.90;;;;;;4194953;28;20056;-77
2022/02/02 18:40:59;;;;;;;23.98;3.58;;;;;;;;;;4197838;28;20059;-80
2022/02/02 18:43:11;;;;;;;15.05;3.03;;;;;;;;;;4197659;28;20132;-79
2022/02/02 18:45:30;;;;;;;20.52;3.22;;;;;;;;;;4194003;28;20052;-78
2022/02/02 18:47:58;;;;;;;21.88;3.05;;;;;;;;;;4195424;28;20044;-79
2022/02/02 18:50:24;;;;;;;16.65;3.03;;;;;;;;;;4213320;28;20078;-78
2022/02/02 18:57:32;;;;;;;18.33;2.97;;;;;;;;;;4180599;28;20052;-81
2022/02/02 19:00:07;;;;;;;18.65;4.00;;;;;;;;;;4195552;28;20052;-79
2022/02/02 19:31:26;;;;;;;22.73;5.47;;;9.10;99.90;;;;;;4200325;28;20060;-78
2022/02/02 19:52:31;;;;;;;20.15;4.78;;;;;;;;;;4189038;28;20087;-79
2022/02/02 19:56:46;;;;;;;19.55;4.07;;;9.00;99.90;;;;;;4193792;28;20401;-82
2022/02/02 20:03:53;;;;;;;18.52;4.22;;;;;;;;;;4186771;28;20071;-79
2022/02/02 20:12:40;;;;;;;20.15;4.18;;;8.80;99.90;;;;;;4190052;28;20076;-79
2022/02/02 20:14:42;;;;;;;16.08;4.25;;;8.70;99.90;;;;;;4188818;28;20128;-80
2022/02/02 20:16:46;;;;;;;13.88;4.55;;;8.70;99.90;;;;;;4193327;28;20049;-80
2022/02/02 20:18:50;;;;;;;18.38;4.63;;;8.70;99.90;;;;;;4189662;28;20048;-81
2022/02/02 20:20:54;;;;;;;15.77;3.97;;;8.60;99.90;;;;;;4190779;28;20514;-79
2022/02/02 20:23:01;;;;;;;17.83;4.35;;;8.70;99.90;;;;;;4187941;28;20843;-80
2022/02/02 20:25:04;;;;;;;20.38;4.63;;;8.60;99.90;;;;;;4196079;28;20056;-79
2022/02/02 20:27:08;;;;;;;18.45;3.92;;;8.60;99.90;;;;;;4186020;28;20053;-79
2022/02/02 20:29:11;;;;;;;16.77;4.60;;;8.60;99.90;;;;;;4188348;28;20519;-79
2022/02/02 20:31:14;;;;;;;17.65;4.40;;;8.60;99.90;;;;;;4188535;28;20536;-80
2022/02/02 20:33:16;;;;;;;20.55;4.47;;;8.60;99.90;;;;;;4190263;28;20052;-79
2022/02/02 20:35:18;;;;;;;17.10;4.15;;;;;;;;;;4190030;28;20053;-77
2022/02/02 20:37:21;;;;;;;16.40;4.30;;;8.70;99.90;;;;;;4185917;28;20045;-79
2022/02/02 20:39:39;;;;;;;14.98;4.22;;;8.60;99.90;;;;;;4192058;28;20048;-79
2022/02/02 20:41:41;;;;;;;17.00;4.07;;;;;;;;;;4191141;28;20626;-79
2022/02/02 21:06:30;;;;;;;17.15;5.07;;;8.50;99.90;;;;;;4189286;28;20088;-79
2022/02/02 21:10:53;;;;;;;18.70;4.35;;;8.40;99.90;;;;;;4186068;28;20084;-80
2022/02/02 21:15:28;;;;;;;18.10;3.90;;;8.50;99.90;;;;;;4193103;28;20076;-80
2022/02/02 21:17:33;;;;;;;21.60;4.70;;;8.60;99.90;;;;;;4190643;28;20079;-79
2022/02/02 21:19:48;;;;;;;18.55;4.22;;;;;;;;;;4192110;28;20049;-79
2022/02/02 21:21:58;;;;;;;17.42;4.75;;;8.60;99.90;;;;;;4184866;28;20143;-79
2022/02/02 21:24:33;;;;;;;19.88;4.43;;;8.40;99.90;;;;;;4182434;28;20505;-79
2022/02/02 21:28:56;;;;;;;11.35;4.10;;;8.60;99.90;;;;;;4182852;28;20045;-80
2022/02/02 21:30:58;;;;;;;15.68;4.80;;;8.40;99.90;;;;;;4182181;28;20049;-84
2022/02/02 21:33:00;;;;;;;17.88;4.63;;;8.40;99.90;;;;;;4182816;28;20063;-83
2022/02/02 21:35:07;;;;;;;20.40;4.75;;;8.40;99.90;;;;;;4187193;28;20091;-78
2022/02/02 21:37:09;;;;;;;23.17;4.65;;;8.40;99.90;;;;;;4181166;28;20044;-80
2022/02/02 21:39:20;;;;;;;17.92;4.97;;;8.40;99.90;;;;;;4181684;28;20057;-79
2022/02/02 21:41:31;;;;;;;18.98;4.50;;;8.40;99.90;;;;;;4181277;28;20053;-78
2022/02/02 21:43:33;;;;;;;15.10;4.30;;;8.40;99.90;;;;;;4181693;28;20095;-79
2022/02/02 21:45:35;;;;;;;15.50;4.20;;;8.40;99.90;;;;;;4195939;28;20068;-78
2022/02/02 21:47:37;;;;;;;13.07;4.20;;;8.50;99.90;;;;;;4183978;28;20076;-79
2022/02/02 21:49:42;;;;;;;12.95;4.28;;;8.40;99.90;;;;;;4196081;28;20083;-79